Idyllwild, California
Current Conditions -  °F | °C
As of 10:53 PM on Wednesday 17 Dec 2014 (Local Time) from KPSP Reporting Station
Overcast Overcast  
Wind Chill: 56°   Ceiling: 10000
Heat Index: 56°   Visibility: 8mi
Dew Point: 49°   Wind: 7mph
Humidity: 77%   Direction: 10°N
Pressure: 30.13"   Gusts: NA
Location:  33.74°N, 116.72°W
Report Text: KPSP 180653Z 01006KT 8SM OVC100 13/09 A3013 RMK AO2 SLP202 T01330094
Loading
Personal Weather Stations






























Interactive Weather Map New forecast layout! Learn more

10-Day Weather Forecast

Advertisements
Track Severe Weather on mobile